Time;durP1;ratioP1;P1;durP2;ratioP2;P2;SDS_P1;SDS_P2;PMS_P1;PMS_P2;Temp;Humidity;BMP_temperature;BMP_pressure;BME280_temperature;BME280_humidity;BME280_pressure;Samples;Min_cycle;Max_cycle;Signal;HPM_P1;HPM_P2
2023/05/16 00:02:04;;;;;;;;;;;19.90;42.30;;;;;;5094051;28;19962;-58
2023/05/16 00:04:32;;;;;;;;;;;19.90;42.30;;;;;;5075806;28;20007;-57
2023/05/16 00:06:59;;;;;;;;;;;19.90;42.30;;;;;;5112112;28;19920;-57
2023/05/16 00:09:26;;;;;;;;;;;19.90;42.30;;;;;;5099954;28;20025;-57
2023/05/16 00:11:53;;;;;;;;;;;19.90;42.30;;;;;;5076938;28;19929;-57
2023/05/16 00:14:20;;;;;;;;;;;19.90;42.30;;;;;;5076518;28;20068;-57
2023/05/16 00:16:47;;;;;;;;;;;19.90;42.30;;;;;;5079127;28;19927;-57
2023/05/16 00:19:14;;;;;;;;;;;19.90;42.30;;;;;;5076629;28;19934;-57
2023/05/16 00:21:43;;;;;;;;;;;19.90;42.30;;;;;;5089719;28;19920;-57
2023/05/16 00:24:10;;;;;;;;;;;19.90;42.30;;;;;;5079402;28;20342;-57
2023/05/16 00:26:37;;;;;;;;;;;19.90;42.30;;;;;;5094693;28;19920;-57
2023/05/16 00:29:03;;;;;;;;;;;19.90;42.30;;;;;;5075479;28;19920;-58
2023/05/16 00:31:30;;;;;;;;;;;19.90;42.30;;;;;;5104737;28;19920;-57
2023/05/16 00:33:57;;;;;;;;;;;19.80;42.20;;;;;;5098889;28;19920;-57
2023/05/16 00:36:23;;;;;;;;;;;19.80;42.30;;;;;;5076053;28;19920;-57
2023/05/16 00:38:52;;;;;;;;;;;19.90;42.40;;;;;;5109797;28;20017;-57
2023/05/16 00:41:18;;;;;;;;;;;19.80;42.30;;;;;;5094578;28;19927;-57
2023/05/16 00:43:47;;;;;;;;;;;19.80;42.30;;;;;;5087488;28;19927;-57
2023/05/16 00:46:16;;;;;;;;;;;19.80;42.30;;;;;;5074310;28;19924;-57
2023/05/16 00:48:44;;;;;;;;;;;19.90;42.40;;;;;;5076443;28;19924;-57
2023/05/16 00:51:11;;;;;;;;;;;19.80;42.30;;;;;;5075938;28;19927;-56
2023/05/16 00:53:37;;;;;;;;;;;19.80;42.90;;;;;;5092510;28;19919;-57
2023/05/16 00:56:07;;;;;;;;;;;19.80;42.20;;;;;;5074061;28;19969;-57
2023/05/16 00:58:34;;;;;;;;;;;19.80;42.20;;;;;;5075139;28;19924;-57
2023/05/16 01:01:02;;;;;;;;;;;19.80;42.20;;;;;;5111108;28;19963;-58
2023/05/16 01:03:30;;;;;;;;;;;19.80;42.20;;;;;;5097413;28;19926;-57
2023/05/16 01:05:56;;;;;;;;;;;19.80;42.20;;;;;;5097713;28;19966;-57
2023/05/16 01:08:23;;;;;;;;;;;19.80;42.20;;;;;;5115877;28;19973;-57
2023/05/16 01:10:53;;;;;;;;;;;19.80;42.20;;;;;;5114980;28;19949;-57
2023/05/16 01:13:24;;;;;;;;;;;19.80;42.20;;;;;;5101462;28;19920;-58
2023/05/16 01:15:55;;;;;;;;;;;19.80;42.20;;;;;;5075441;28;19927;-57
2023/05/16 01:18:24;;;;;;;;;;;19.80;42.20;;;;;;5094153;28;19920;-58
2023/05/16 01:20:54;;;;;;;;;;;19.80;42.20;;;;;;5074229;28;19924;-58
2023/05/16 01:23:25;;;;;;;;;;;19.80;42.30;;;;;;5073664;28;19920;-58
2023/05/16 01:25:56;;;;;;;;;;;19.80;42.30;;;;;;5074646;28;20007;-58
2023/05/16 01:28:28;;;;;;;;;;;19.80;42.30;;;;;;5057577;28;19920;-59
2023/05/16 01:30:55;;;;;;;;;;;19.80;42.30;;;;;;5071753;28;19920;-59
2023/05/16 01:33:24;;;;;;;;;;;19.80;42.30;;;;;;5078846;28;19924;-59
2023/05/16 01:35:54;;;;;;;;;;;19.80;42.30;;;;;;5086783;28;19921;-58
2023/05/16 01:38:25;;;;;;;;;;;19.80;42.30;;;;;;5087065;28;19931;-57
2023/05/16 01:40:53;;;;;;;;;;;19.80;42.30;;;;;;5092865;28;19920;-58
2023/05/16 01:43:21;;;;;;;;;;;19.80;42.40;;;;;;5095399;28;19927;-57
2023/05/16 01:45:51;;;;;;;;;;;19.80;42.40;;;;;;5091339;28;19927;-56
2023/05/16 01:48:18;;;;;;;;;;;19.70;42.40;;;;;;5094698;28;19920;-57
2023/05/16 01:50:46;;;;;;;;;;;19.80;42.50;;;;;;5076839;28;19919;-57
2023/05/16 01:53:14;;;;;;;;;;;19.80;42.60;;;;;;5080438;28;19920;-57
2023/05/16 01:55:43;;;;;;;;;;;19.70;42.60;;;;;;5074330;28;19970;-57
2023/05/16 01:58:10;;;;;;;;;;;19.70;42.70;;;;;;5082880;28;20014;-57
2023/05/16 02:00:37;;;;;;;;;;;19.70;42.70;;;;;;5083547;28;19925;-57
2023/05/16 02:03:05;;;;;;;;;;;19.70;42.80;;;;;;5084398;28;19927;-57
2023/05/16 02:05:32;;;;;;;;;;;19.70;42.90;;;;;;5074308;28;19927;-57
2023/05/16 02:07:58;;;;;;;;;;;19.70;42.90;;;;;;5091273;28;20400;-58
2023/05/16 02:10:25;;;;;;;;;;;19.70;42.90;;;;;;5095468;28;19920;-57
2023/05/16 02:12:52;;;;;;;;;;;19.70;42.90;;;;;;5054283;28;19920;-57
2023/05/16 02:15:19;;;;;;;;;;;19.70;42.90;;;;;;5074422;28;19920;-57
2023/05/16 02:17:46;;;;;;;;;;;19.70;42.90;;;;;;5091514;28;19928;-57
2023/05/16 02:20:14;;;;;;;;;;;19.70;42.90;;;;;;5074078;28;20031;-57
2023/05/16 02:22:42;;;;;;;;;;;19.70;42.80;;;;;;5076858;28;19920;-57
2023/05/16 02:25:09;;;;;;;;;;;19.70;42.80;;;;;;5105378;28;19920;-57
2023/05/16 02:27:36;;;;;;;;;;;19.70;42.80;;;;;;5075155;28;20023;-57
2023/05/16 02:30:04;;;;;;;;;;;19.70;42.80;;;;;;5076037;28;19920;-57
2023/05/16 02:32:31;;;;;;;;;;;19.60;42.60;;;;;;5075992;28;19931;-57
2023/05/16 02:34:57;;;;;;;;;;;19.60;42.60;;;;;;5076502;28;19943;-57
2023/05/16 02:37:26;;;;;;;;;;;19.60;42.60;;;;;;5094033;28;20014;-58
2023/05/16 02:39:52;;;;;;;;;;;19.60;42.50;;;;;;5075679;28;19962;-57
2023/05/16 02:42:19;;;;;;;;;;;19.60;42.50;;;;;;5094022;28;19926;-58
2023/05/16 02:44:46;;;;;;;;;;;19.60;42.50;;;;;;5074251;28;20015;-58
2023/05/16 02:47:13;;;;;;;;;;;19.60;42.40;;;;;;5076492;28;19920;-57
2023/05/16 02:49:40;;;;;;;;;;;19.60;42.30;;;;;;5093979;28;19920;-58
2023/05/16 02:52:07;;;;;;;;;;;19.60;42.20;;;;;;5074466;28;19920;-57
2023/05/16 02:54:35;;;;;;;;;;;19.60;42.00;;;;;;5075907;28;19923;-57
2023/05/16 02:57:02;;;;;;;;;;;19.60;41.90;;;;;;5075558;28;19923;-58
2023/05/16 02:59:28;;;;;;;;;;;19.60;41.80;;;;;;5078514;28;19926;-58
2023/05/16 03:01:55;;;;;;;;;;;19.60;41.70;;;;;;5075625;28;19925;-58
2023/05/16 03:04:23;;;;;;;;;;;19.60;41.60;;;;;;5076504;28;19927;-57
2023/05/16 03:06:51;;;;;;;;;;;19.50;41.40;;;;;;5059682;28;19925;-57
2023/05/16 03:09:19;;;;;;;;;;;19.50;41.40;;;;;;5083359;28;19924;-57
2023/05/16 03:11:47;;;;;;;;;;;19.50;41.40;;;;;;5079624;28;19943;-57
2023/05/16 03:14:13;;;;;;;;;;;19.50;41.30;;;;;;5097001;28;19920;-57
2023/05/16 03:16:42;;;;;;;;;;;19.50;41.20;;;;;;5097496;28;19927;-57
2023/05/16 03:19:09;;;;;;;;;;;19.50;41.20;;;;;;5096526;28;19955;-57
2023/05/16 03:21:36;;;;;;;;;;;19.50;41.10;;;;;;5097410;28;19985;-57
2023/05/16 03:24:02;;;;;;;;;;;19.50;41.10;;;;;;5079270;28;19924;-57
2023/05/16 03:26:29;;;;;;;;;;;19.50;41.00;;;;;;5096366;28;20020;-57
2023/05/16 03:28:58;;;;;;;;;;;19.50;41.00;;;;;;5077058;28;19920;-57
2023/05/16 03:31:24;;;;;;;;;;;19.40;40.90;;;;;;5079351;28;19966;-57
2023/05/16 03:33:51;;;;;;;;;;;19.50;40.90;;;;;;5062950;28;19938;-57
2023/05/16 03:36:18;;;;;;;;;;;19.40;40.80;;;;;;5096004;28;20373;-58
2023/05/16 03:38:45;;;;;;;;;;;19.40;40.80;;;;;;5095564;28;19965;-58
2023/05/16 03:41:11;;;;;;;;;;;19.40;40.70;;;;;;5095800;28;19950;-58
2023/05/16 03:43:38;;;;;;;;;;;19.40;40.80;;;;;;5077177;28;19924;-58
2023/05/16 03:46:06;;;;;;;;;;;19.40;40.80;;;;;;5079578;28;20022;-58
2023/05/16 03:48:33;;;;;;;;;;;19.40;40.70;;;;;;5096690;28;19942;-58
2023/05/16 03:51:00;;;;;;;;;;;19.40;40.70;;;;;;5076660;28;19920;-58
2023/05/16 03:53:26;;;;;;;;;;;19.50;40.80;;;;;;5079106;28;19981;-58
2023/05/16 03:55:53;;;;;;;;;;;19.40;40.70;;;;;;5095761;28;19920;-58
2023/05/16 03:58:20;;;;;;;;;;;19.40;40.80;;;;;;5095638;28;19966;-58
2023/05/16 04:00:47;;;;;;;;;;;19.40;40.80;;;;;;5078734;28;19920;-58
2023/05/16 04:03:15;;;;;;;;;;;19.40;40.80;;;;;;5078937;28;19963;-58
2023/05/16 04:05:42;;;;;;;;;;;19.40;40.80;;;;;;5089245;28;20011;-57
2023/05/16 04:08:09;;;;;;;;;;;19.40;40.90;;;;;;5072041;28;20014;-57
2023/05/16 04:10:35;;;;;;;;;;;19.40;40.90;;;;;;5076198;28;19950;-58
2023/05/16 04:13:02;;;;;;;;;;;19.40;40.90;;;;;;5078545;28;19927;-56
2023/05/16 04:15:32;;;;;;;;;;;19.40;40.90;;;;;;5067768;28;20385;-58
2023/05/16 04:17:59;;;;;;;;;;;19.40;40.90;;;;;;5075416;28;20019;-57
2023/05/16 04:20:29;;;;;;;;;;;19.40;40.80;;;;;;5077989;28;19920;-57
2023/05/16 04:22:55;;;;;;;;;;;19.40;40.80;;;;;;5078741;28;19931;-57
2023/05/16 04:25:22;;;;;;;;;;;19.40;40.70;;;;;;5076913;28;20049;-57
2023/05/16 04:27:49;;;;;;;;;;;19.40;40.70;;;;;;5096322;28;19924;-56
2023/05/16 04:30:16;;;;;;;;;;;19.40;40.70;;;;;;5096402;28;20377;-57
2023/05/16 04:32:43;;;;;;;;;;;19.40;40.50;;;;;;5092268;28;19920;-57
2023/05/16 04:35:10;;;;;;;;;;;19.40;40.40;;;;;;5075329;28;19928;-57
2023/05/16 04:37:38;;;;;;;;;;;19.40;40.40;;;;;;5080229;28;19955;-58
2023/05/16 04:40:06;;;;;;;;;;;19.40;40.30;;;;;;5088983;28;19920;-57
2023/05/16 04:42:33;;;;;;;;;;;19.40;40.30;;;;;;5056057;28;19966;-58
2023/05/16 04:45:02;;;;;;;;;;;19.30;40.20;;;;;;5072817;28;20275;-58
2023/05/16 04:47:29;;;;;;;;;;;19.30;40.10;;;;;;5075083;28;19928;-58
2023/05/16 04:49:56;;;;;;;;;;;19.30;40.00;;;;;;5100326;28;19920;-58
2023/05/16 04:52:23;;;;;;;;;;;19.30;39.90;;;;;;5092798;28;19973;-58
2023/05/16 04:54:51;;;;;;;;;;;19.30;39.90;;;;;;5077796;28;19923;-58
2023/05/16 04:57:18;;;;;;;;;;;19.30;39.80;;;;;;5092129;28;20089;-58
2023/05/16 04:59:45;;;;;;;;;;;19.30;39.70;;;;;;5094628;28;19966;-58
2023/05/16 05:02:12;;;;;;;;;;;19.30;39.70;;;;;;5094303;28;20014;-58
2023/05/16 05:04:38;;;;;;;;;;;19.30;39.70;;;;;;5094421;28;19928;-58
2023/05/16 05:07:05;;;;;;;;;;;19.30;39.60;;;;;;5077304;28;20011;-58
2023/05/16 05:09:32;;;;;;;;;;;19.30;39.60;;;;;;5075675;28;19970;-57
2023/05/16 05:12:01;;;;;;;;;;;19.30;39.60;;;;;;5075190;28;19931;-57
2023/05/16 05:14:28;;;;;;;;;;;19.20;39.50;;;;;;5079895;28;19920;-58
2023/05/16 05:16:55;;;;;;;;;;;19.30;39.60;;;;;;5075426;28;19927;-57
2023/05/16 05:19:23;;;;;;;;;;;19.20;39.40;;;;;;5072913;28;19920;-57
2023/05/16 05:21:49;;;;;;;;;;;19.20;39.40;;;;;;5073259;28;20019;-58
2023/05/16 05:24:16;;;;;;;;;;;19.20;39.40;;;;;;5074571;28;19969;-58
2023/05/16 05:26:43;;;;;;;;;;;19.20;39.30;;;;;;5074489;28;19924;-57
2023/05/16 05:29:11;;;;;;;;;;;19.30;39.40;;;;;;5073607;28;19977;-58
2023/05/16 05:31:38;;;;;;;;;;;19.20;39.30;;;;;;5073209;28;19966;-58
2023/05/16 05:34:04;;;;;;;;;;;19.20;39.30;;;;;;5074825;28;19966;-58
2023/05/16 05:36:31;;;;;;;;;;;19.20;39.20;;;;;;5073678;28;19962;-57
2023/05/16 05:38:58;;;;;;;;;;;19.20;39.10;;;;;;5073508;28;19921;-58
2023/05/16 05:41:25;;;;;;;;;;;19.20;39.10;;;;;;5073283;28;19920;-55
2023/05/16 05:43:51;;;;;;;;;;;19.20;39.00;;;;;;5073684;28;19950;-57
2023/05/16 05:46:20;;;;;;;;;;;19.20;38.90;;;;;;5074271;28;20278;-57
2023/05/16 05:48:46;;;;;;;;;;;19.20;38.80;;;;;;5073193;28;19920;-57
2023/05/16 05:51:13;;;;;;;;;;;19.20;38.70;;;;;;5073500;28;19920;-57
2023/05/16 05:53:40;;;;;;;;;;;19.20;38.70;;;;;;5073083;28;20038;-57
2023/05/16 05:56:07;;;;;;;;;;;19.20;38.60;;;;;;5073149;28;20309;-57
2023/05/16 05:58:34;;;;;;;;;;;19.20;38.60;;;;;;5074193;28;19920;-57
2023/05/16 06:01:01;;;;;;;;;;;19.20;38.60;;;;;;5072973;28;20259;-58
2023/05/16 06:03:29;;;;;;;;;;;19.10;38.40;;;;;;5073312;28;19921;-57
2023/05/16 06:05:56;;;;;;;;;;;19.20;38.50;;;;;;5073085;28;19921;-61
2023/05/16 06:08:22;;;;;;;;;;;19.10;38.30;;;;;;5072533;28;19970;-62
2023/05/16 06:10:49;;;;;;;;;;;19.20;38.60;;;;;;5072965;28;20015;-62
2023/05/16 06:13:16;;;;;;;;;;;19.10;38.60;;;;;;5073734;28;19973;-62
2023/05/16 06:15:43;;;;;;;;;;;19.10;38.70;;;;;;5073254;28;19951;-62
2023/05/16 06:18:09;;;;;;;;;;;19.20;38.80;;;;;;5072995;28;20036;-61
2023/05/16 06:20:38;;;;;;;;;;;19.20;38.90;;;;;;5073828;28;19921;-61
2023/05/16 06:23:06;;;;;;;;;;;19.20;39.00;;;;;;5072504;28;19921;-61
2023/05/16 06:25:33;;;;;;;;;;;19.30;39.10;;;;;;5073885;28;19921;-61
2023/05/16 06:28:00;;;;;;;;;;;19.30;39.20;;;;;;5072819;28;19930;-62
2023/05/16 06:30:26;;;;;;;;;;;19.40;39.30;;;;;;5072733;28;19928;-62
2023/05/16 06:32:53;;;;;;;;;;;19.40;39.30;;;;;;5070312;28;20358;-61
2023/05/16 06:35:20;;;;;;;;;;;19.40;39.30;;;;;;5073922;28;19990;-62
2023/05/16 06:37:48;;;;;;;;;;;19.50;39.40;;;;;;5072713;28;19928;-61
2023/05/16 06:40:15;;;;;;;;;;;19.50;39.40;;;;;;5072807;28;19924;-62
2023/05/16 06:42:42;;;;;;;;;;;19.50;39.40;;;;;;5072332;28;20308;-62
2023/05/16 06:45:09;;;;;;;;;;;19.60;39.50;;;;;;5072133;28;19920;-62
2023/05/16 06:47:36;;;;;;;;;;;19.60;39.60;;;;;;5074305;28;19920;-61
2023/05/16 06:50:03;;;;;;;;;;;19.60;39.60;;;;;;5072710;28;19927;-61
2023/05/16 06:52:30;;;;;;;;;;;19.60;39.60;;;;;;5072453;28;19921;-62
2023/05/16 06:54:58;;;;;;;;;;;19.70;39.70;;;;;;5072397;28;20367;-62
2023/05/16 06:57:25;;;;;;;;;;;19.70;39.70;;;;;;5074167;28;19920;-62
2023/05/16 06:59:51;;;;;;;;;;;19.70;39.70;;;;;;5072623;28;19921;-62
2023/05/16 07:02:18;;;;;;;;;;;19.80;39.80;;;;;;5073225;28;19921;-61
2023/05/16 07:04:45;;;;;;;;;;;19.80;39.90;;;;;;5072334;28;20010;-62
2023/05/16 07:07:12;;;;;;;;;;;19.80;39.90;;;;;;5073493;28;19920;-62
2023/05/16 07:09:39;;;;;;;;;;;19.80;39.90;;;;;;5072319;28;19924;-62
2023/05/16 07:12:07;;;;;;;;;;;19.80;40.20;;;;;;5092997;28;19920;-63
2023/05/16 07:14:34;;;;;;;;;;;19.90;40.00;;;;;;5095505;28;19919;-63
2023/05/16 07:17:01;;;;;;;;;;;19.90;40.00;;;;;;5095820;28;19954;-62
2023/05/16 07:19:28;;;;;;;;;;;19.90;40.00;;;;;;5096823;28;19920;-61
2023/05/16 07:21:54;;;;;;;;;;;19.90;40.00;;;;;;5113910;28;19924;-61
2023/05/16 07:24:23;;;;;;;;;;;20.00;40.10;;;;;;5113721;28;19919;-61
2023/05/16 07:26:50;;;;;;;;;;;20.00;40.20;;;;;;5096309;28;19924;-61
2023/05/16 07:29:18;;;;;;;;;;;20.00;40.20;;;;;;5112276;28;19946;-60
2023/05/16 07:31:45;;;;;;;;;;;20.00;40.20;;;;;;5096207;28;19965;-60
2023/05/16 07:34:12;;;;;;;;;;;20.00;40.20;;;;;;5075671;28;19920;-61
2023/05/16 07:36:38;;;;;;;;;;;20.00;40.30;;;;;;5092596;28;20315;-61
2023/05/16 07:39:05;;;;;;;;;;;20.00;40.30;;;;;;5075312;28;19924;-61
2023/05/16 07:41:32;;;;;;;;;;;20.10;40.30;;;;;;5093317;28;19950;-61
2023/05/16 07:43:59;;;;;;;;;;;20.10;40.40;;;;;;5094642;28;19920;-62
2023/05/16 07:46:27;;;;;;;;;;;20.10;40.40;;;;;;5097128;28;19924;-61
2023/05/16 07:48:54;;;;;;;;;;;20.10;40.40;;;;;;5096087;28;19920;-60
2023/05/16 07:51:32;;;;;;;;;;;20.10;40.50;;;;;;5095918;28;20296;-62
2023/05/16 07:53:58;;;;;;;;;;;20.10;40.50;;;;;;5096301;28;19920;-62
2023/05/16 07:56:25;;;;;;;;;;;20.10;40.50;;;;;;5078840;28;19977;-62
2023/05/16 07:58:52;;;;;;;;;;;20.20;40.60;;;;;;5095402;28;19920;-62
2023/05/16 08:01:19;;;;;;;;;;;20.20;40.60;;;;;;5095834;28;19974;-62
2023/05/16 08:03:47;;;;;;;;;;;20.20;40.70;;;;;;5096144;28;19920;-61
2023/05/16 08:06:14;;;;;;;;;;;20.20;40.70;;;;;;5095918;28;19927;-61
2023/05/16 08:08:41;;;;;;;;;;;20.20;40.70;;;;;;5092771;28;19928;-62
2023/05/16 08:11:08;;;;;;;;;;;20.30;40.70;;;;;;5089745;28;19920;-61
2023/05/16 08:13:34;;;;;;;;;;;20.30;40.80;;;;;;5075675;28;19920;-62
2023/05/16 08:16:01;;;;;;;;;;;20.30;40.80;;;;;;5076142;28;19946;-61
2023/05/16 08:18:28;;;;;;;;;;;20.30;40.80;;;;;;5093176;28;19943;-62
2023/05/16 08:20:56;;;;;;;;;;;20.30;40.80;;;;;;5094573;28;19920;-62
2023/05/16 08:23:23;;;;;;;;;;;20.30;40.90;;;;;;5094350;28;19965;-62
2023/05/16 08:25:50;;;;;;;;;;;20.30;40.90;;;;;;5095814;28;19920;-62
2023/05/16 08:28:16;;;;;;;;;;;20.30;40.90;;;;;;5106511;28;19926;-62
2023/05/16 08:30:49;;;;;;;;;;;20.30;40.80;;;;;;5081465;28;20358;-62
2023/05/16 08:33:16;;;;;;;;;;;20.30;40.80;;;;;;5070517;28;19942;-61
2023/05/16 08:35:43;;;;;;;;;;;20.40;40.90;;;;;;5085601;28;19965;-61
2023/05/16 08:38:11;;;;;;;;;;;20.40;40.90;;;;;;5089660;28;19920;-60
2023/05/16 08:40:38;;;;;;;;;;;20.40;40.90;;;;;;5096812;28;19927;-61
2023/05/16 08:43:05;;;;;;;;;;;20.40;41.00;;;;;;5102261;28;19920;-62
2023/05/16 08:45:31;;;;;;;;;;;20.40;41.20;;;;;;5096089;28;20022;-62
2023/05/16 08:47:58;;;;;;;;;;;20.40;41.00;;;;;;5073169;28;20484;-61
2023/05/16 08:50:27;;;;;;;;;;;20.40;40.90;;;;;;5094695;28;19927;-60
2023/05/16 08:52:53;;;;;;;;;;;20.40;41.00;;;;;;5078032;28;19920;-61
2023/05/16 08:55:22;;;;;;;;;;;20.50;41.00;;;;;;5095729;28;19985;-61
2023/05/16 08:57:49;;;;;;;;;;;20.50;41.00;;;;;;5094931;28;19927;-61
2023/05/16 09:00:18;;;;;;;;;;;20.40;41.00;;;;;;5093555;28;19920;-60
2023/05/16 09:02:44;;;;;;;;;;;20.50;41.00;;;;;;5073494;28;19920;-60
2023/05/16 09:05:13;;;;;;;;;;;20.50;41.00;;;;;;5095542;28;19923;-62
2023/05/16 09:07:40;;;;;;;;;;;20.50;41.00;;;;;;5081559;28;19921;-61
2023/05/16 09:10:08;;;;;;;;;;;20.50;41.00;;;;;;5097199;28;19966;-62
2023/05/16 09:12:36;;;;;;;;;;;20.50;41.00;;;;;;5097291;28;19920;-57
2023/05/16 09:15:03;;;;;;;;;;;20.50;41.00;;;;;;5079699;28;19962;-55
2023/05/16 09:17:34;;;;;;;;;;;20.50;41.00;;;;;;5075373;28;19986;-51
2023/05/16 09:20:01;;;;;;;;;;;20.50;40.90;;;;;;5096305;28;20092;-57
2023/05/16 09:22:28;;;;;;;;;;;20.50;40.60;;;;;;5096223;28;19926;-55
2023/05/16 09:24:55;;;;;;;;;;;20.50;40.30;;;;;;5079026;28;19968;-55
2023/05/16 09:27:22;;;;;;;;;;;20.40;39.70;;;;;;5095137;28;19973;-56
2023/05/16 09:29:53;;;;;;;;;;;20.40;39.20;;;;;;5096926;28;19943;-57
2023/05/16 09:32:19;;;;;;;;;;;20.40;38.80;;;;;;5099631;28;19989;-56
2023/05/16 09:34:47;;;;;;;;;;;20.30;38.60;;;;;;5101096;28;19969;-58
2023/05/16 09:37:14;;;;;;;;;;;20.30;38.50;;;;;;5098627;28;19920;-57
2023/05/16 09:39:45;;;;;;;;;;;20.30;38.70;;;;;;5099105;28;19924;-56
2023/05/16 09:42:13;;;;;;;;;;;20.20;38.50;;;;;;5097901;28;19973;-57
2023/05/16 09:44:42;;;;;;;;;;;20.20;38.30;;;;;;5078770;28;19920;-56
2023/05/16 09:47:10;;;;;;;;;;;20.20;37.80;;;;;;5079073;28;19931;-58
2023/05/16 09:49:37;;;;;;;;;;;20.20;37.60;;;;;;5097030;28;19924;-57
2023/05/16 09:52:05;;;;;;;;;;;20.20;37.50;;;;;;5100328;28;20419;-57
2023/05/16 09:54:32;;;;;;;;;;;20.10;37.30;;;;;;5082421;28;19924;-57
2023/05/16 09:56:59;;;;;;;;;;;20.10;37.00;;;;;;5098581;28;19959;-57
2023/05/16 09:59:26;;;;;;;;;;;20.10;37.20;;;;;;5080654;28;19920;-57
2023/05/16 10:01:53;;;;;;;;;;;20.10;37.00;;;;;;5098374;28;19920;-57
2023/05/16 10:04:21;;;;;;;;;;;20.10;37.00;;;;;;5093607;28;19920;-57
2023/05/16 10:06:55;;;;;;;;;;;20.10;37.10;;;;;;5079200;28;19927;-58
2023/05/16 10:09:22;;;;;;;;;;;20.00;37.10;;;;;;5076898;28;20007;-58
2023/05/16 10:11:54;;;;;;;;;;;20.00;37.20;;;;;;5079400;28;19941;-58
2023/05/16 10:14:21;;;;;;;;;;;20.00;37.20;;;;;;5077787;28;19924;-58
2023/05/16 10:16:48;;;;;;;;;;;20.00;37.10;;;;;;5075110;28;19920;-57
2023/05/16 10:19:17;;;;;;;;;;;20.00;37.20;;;;;;5080472;28;19920;-58
2023/05/16 10:21:46;;;;;;;;;;;20.00;37.10;;;;;;5096171;28;19978;-59
2023/05/16 10:24:14;;;;;;;;;;;20.00;37.20;;;;;;5078858;28;20005;-58
2023/05/16 10:26:41;;;;;;;;;;;20.00;37.30;;;;;;5080293;28;19967;-57
2023/05/16 10:29:07;;;;;;;;;;;20.00;37.40;;;;;;5097479;28;19920;-57
2023/05/16 10:31:34;;;;;;;;;;;20.00;37.60;;;;;;5096023;28;19920;-59
2023/05/16 10:34:01;;;;;;;;;;;20.00;37.60;;;;;;5096948;28;19920;-58
2023/05/16 10:36:28;;;;;;;;;;;20.00;37.80;;;;;;5077540;28;19920;-57
2023/05/16 10:38:56;;;;;;;;;;;20.00;37.80;;;;;;5078326;28;19924;-56
2023/05/16 10:41:23;;;;;;;;;;;20.00;37.80;;;;;;5078822;28;19974;-57
2023/05/16 10:43:56;;;;;;;;;;;20.00;37.90;;;;;;5077670;28;19920;-57
2023/05/16 10:46:23;;;;;;;;;;;20.00;37.70;;;;;;5096191;28;19959;-57
2023/05/16 10:48:49;;;;;;;;;;;20.00;37.20;;;;;;5079903;28;19924;-56
2023/05/16 10:51:35;;;;;;;;;;;20.00;37.20;;;;;;5097788;28;19969;-58
2023/05/16 10:54:06;;;;;;;;;;;20.00;37.10;;;;;;5096765;28;19928;-56
2023/05/16 10:56:33;;;;;;;;;;;20.00;37.00;;;;;;5076996;28;19920;-58
2023/05/16 10:59:00;;;;;;;;;;;20.00;37.10;;;;;;5095566;28;19928;-59
2023/05/16 11:01:28;;;;;;;;;;;20.00;37.10;;;;;;5045934;28;20278;-58
2023/05/16 11:04:05;;;;;;;;;;;20.00;37.00;;;;;;5097019;28;19996;-58
2023/05/16 11:06:33;;;;;;;;;;;20.00;36.80;;;;;;5097418;28;19927;-57
2023/05/16 11:09:08;;;;;;;;;;;20.00;36.70;;;;;;5094958;28;19920;-58
2023/05/16 11:11:41;;;;;;;;;;;19.90;36.80;;;;;;5095747;28;20022;-58
2023/05/16 11:14:08;;;;;;;;;;;19.90;37.20;;;;;;5093560;28;19920;-57
2023/05/16 11:16:35;;;;;;;;;;;19.90;37.40;;;;;;5080378;28;19981;-59
2023/05/16 11:19:06;;;;;;;;;;;19.90;37.50;;;;;;5080821;28;19927;-55
2023/05/16 11:21:58;;;;;;;;;;;19.90;37.60;;;;;;5099526;28;19973;-58
2023/05/16 11:24:29;;;;;;;;;;;19.90;37.70;;;;;;5097015;28;20023;-58
2023/05/16 11:26:56;;;;;;;;;;;19.90;37.70;;;;;;5096831;28;19967;-58
2023/05/16 11:29:23;;;;;;;;;;;19.90;37.70;;;;;;5095324;28;19970;-57
2023/05/16 11:31:53;;;;;;;;;;;19.90;37.70;;;;;;5095088;28;19920;-58
2023/05/16 11:34:22;;;;;;;;;;;19.90;37.80;;;;;;5076291;28;19920;-58
2023/05/16 11:36:50;;;;;;;;;;;19.90;37.80;;;;;;5079082;28;20358;-59
2023/05/16 11:39:18;;;;;;;;;;;19.90;37.90;;;;;;5076585;28;19920;-57
2023/05/16 11:41:46;;;;;;;;;;;20.00;38.00;;;;;;5096852;28;19966;-58
2023/05/16 11:44:12;;;;;;;;;;;20.00;38.00;;;;;;5077199;28;19973;-58
2023/05/16 11:46:40;;;;;;;;;;;20.00;38.00;;;;;;5077148;28;19920;-58
2023/05/16 11:49:08;;;;;;;;;;;20.00;38.10;;;;;;5079631;28;19927;-58
2023/05/16 11:51:35;;;;;;;;;;;20.00;38.10;;;;;;5096472;28;19920;-57
2023/05/16 11:54:03;;;;;;;;;;;20.00;38.20;;;;;;5067495;28;19942;-58
2023/05/16 11:56:30;;;;;;;;;;;20.00;38.20;;;;;;5075532;28;20015;-58
2023/05/16 11:58:59;;;;;;;;;;;20.00;38.30;;;;;;5089012;28;20009;-58
2023/05/16 12:01:26;;;;;;;;;;;20.00;38.30;;;;;;5072973;28;19927;-57
2023/05/16 12:03:56;;;;;;;;;;;20.10;38.40;;;;;;5078562;28;19924;-57
2023/05/16 12:06:23;;;;;;;;;;;20.10;38.40;;;;;;5076349;28;19925;-57
2023/05/16 12:08:50;;;;;;;;;;;20.10;38.40;;;;;;5095441;28;19924;-57
2023/05/16 12:11:20;;;;;;;;;;;20.10;38.40;;;;;;5093518;28;20232;-57
2023/05/16 12:13:47;;;;;;;;;;;20.10;38.40;;;;;;5078013;28;19920;-58
2023/05/16 12:16:15;;;;;;;;;;;20.10;38.40;;;;;;5078099;28;20320;-58
2023/05/16 12:18:43;;;;;;;;;;;20.10;38.40;;;;;;5076160;28;19924;-58
2023/05/16 12:21:09;;;;;;;;;;;20.10;38.40;;;;;;5078129;28;19927;-59
2023/05/16 12:23:36;;;;;;;;;;;20.20;39.20;;;;;;5078648;28;20239;-58
2023/05/16 12:26:05;;;;;;;;;;;20.20;38.60;;;;;;5078569;28;19923;-58
2023/05/16 12:28:33;;;;;;;;;;;20.20;38.60;;;;;;5077893;28;19924;-56
2023/05/16 12:31:00;;;;;;;;;;;20.20;38.60;;;;;;5073876;28;19942;-58
2023/05/16 12:33:28;;;;;;;;;;;20.20;38.50;;;;;;5058187;28;19974;-57
2023/05/16 12:35:55;;;;;;;;;;;20.20;38.60;;;;;;5077947;28;19982;-56
2023/05/16 12:38:25;;;;;;;;;;;20.20;38.60;;;;;;5076627;28;19970;-56
2023/05/16 12:40:51;;;;;;;;;;;20.20;38.60;;;;;;5076754;28;19921;-57
2023/05/16 12:43:19;;;;;;;;;;;20.20;38.60;;;;;;5043017;28;19921;-57
2023/05/16 12:45:49;;;;;;;;;;;20.20;38.70;;;;;;5042900;28;20019;-59
2023/05/16 12:48:16;;;;;;;;;;;;;;;;;;5059636;28;19925;-55
2023/05/16 12:50:45;;;;;;;;;;;20.20;38.70;;;;;;5059184;28;19924;-57
2023/05/16 12:53:12;;;;;;;;;;;20.20;39.20;;;;;;5076194;28;20262;-57
2023/05/16 12:55:39;;;;;;;;;;;20.20;38.60;;;;;;5084752;28;19962;-60
2023/05/16 12:58:06;;;;;;;;;;;20.30;38.70;;;;;;5077280;28;19942;-57
2023/05/16 13:00:33;;;;;;;;;;;20.30;38.70;;;;;;5079560;28;19924;-58
2023/05/16 13:03:00;;;;;;;;;;;20.30;38.70;;;;;;5095399;28;19920;-57
2023/05/16 13:05:27;;;;;;;;;;;20.30;38.70;;;;;;5078573;28;19942;-58
2023/05/16 13:07:55;;;;;;;;;;;20.30;38.70;;;;;;5079001;28;19977;-58
2023/05/16 13:10:22;;;;;;;;;;;20.30;38.60;;;;;;5078600;28;19920;-58
2023/05/16 13:12:49;;;;;;;;;;;20.30;38.50;;;;;;5096596;28;19920;-57
2023/05/16 13:15:15;;;;;;;;;;;20.30;38.50;;;;;;5096661;28;19920;-57
2023/05/16 13:17:43;;;;;;;;;;;20.30;38.60;;;;;;5078031;28;20321;-57
2023/05/16 13:20:13;;;;;;;;;;;20.30;38.50;;;;;;5075612;28;19951;-58
2023/05/16 13:22:40;;;;;;;;;;;20.30;38.60;;;;;;5096746;28;19920;-57
2023/05/16 13:25:09;;;;;;;;;;;20.30;38.60;;;;;;5094819;28;19928;-57
2023/05/16 13:27:36;;;;;;;;;;;20.30;38.70;;;;;;5082547;28;19920;-56
2023/05/16 13:30:03;;;;;;;;;;;20.30;38.70;;;;;;5073626;28;19947;-59
2023/05/16 13:32:30;;;;;;;;;;;20.30;38.70;;;;;;5075147;28;19958;-58
2023/05/16 13:34:56;;;;;;;;;;;20.30;38.70;;;;;;5074485;28;20290;-58
2023/05/16 13:37:25;;;;;;;;;;;20.30;38.60;;;;;;5080813;28;19924;-58
2023/05/16 13:39:53;;;;;;;;;;;20.30;38.60;;;;;;5077372;28;19965;-57
2023/05/16 13:42:21;;;;;;;;;;;20.30;38.60;;;;;;5074377;28;19926;-58
2023/05/16 13:44:48;;;;;;;;;;;20.30;38.50;;;;;;5074380;28;19927;-58
2023/05/16 13:47:15;;;;;;;;;;;20.30;38.50;;;;;;5069722;28;19920;-54
2023/05/16 13:49:42;;;;;;;;;;;20.30;38.60;;;;;;5059518;28;19920;-58
2023/05/16 13:52:08;;;;;;;;;;;20.30;38.50;;;;;;5074873;28;19951;-57
2023/05/16 13:54:35;;;;;;;;;;;20.30;38.50;;;;;;5073686;28;19920;-56
2023/05/16 13:57:02;;;;;;;;;;;20.30;38.50;;;;;;5073540;28;19921;-56
2023/05/16 13:59:32;;;;;;;;;;;20.20;38.40;;;;;;5073634;28;19920;-57
2023/05/16 14:01:59;;;;;;;;;;;20.30;38.50;;;;;;5073307;28;19943;-55
2023/05/16 14:04:26;;;;;;;;;;;20.30;38.40;;;;;;5073632;28;19982;-57
2023/05/16 14:06:53;;;;;;;;;;;20.30;38.40;;;;;;5073422;28;19920;-58
2023/05/16 14:09:20;;;;;;;;;;;20.30;38.40;;;;;;5073455;28;20424;-54
2023/05/16 14:11:51;;;;;;;;;;;20.30;38.40;;;;;;5073549;28;19966;-57
2023/05/16 14:14:18;;;;;;;;;;;20.30;38.40;;;;;;5072941;28;19932;-57
2023/05/16 14:16:46;;;;;;;;;;;20.30;38.40;;;;;;5073004;28;19932;-56
2023/05/16 14:19:14;;;;;;;;;;;20.30;38.50;;;;;;5073368;28;19921;-57
2023/05/16 14:21:41;;;;;;;;;;;20.30;38.50;;;;;;5072664;28;19920;-55